Aeroporto :
LOGIN :

Iscrizione | Disclaimer

   EN    FR    IT 

 










Sommario :    VFR   VFR Marginale   IFR   IFR Intensivo   IFR Molto Intensivo
Visibilità : 
Base nubi : 
>= 8 km
>= 3000ft
5 / 8 km
1000 / 3000 ft
1500m / 5 km
500 / 1000 ft
800 / 1500m
200 / 500 ft
< 800m
< 200 ft
Simboli :   Temporali  Nebbia  Neve Forte  Precipitazioni Forti  Vento > 20 kt
SIGMETs :   Varie  Temporali  Ghiacco  Turbolenza  Onda orograficha  Ceneri Vulcaniche






- Altitudine del aeroporto : 141 ft
- Codice IATA : SKS


EKSP - Srydstrup Vojens

ULTIMO METAR :
  • 171750Z 05003KT CAVOK 04/03 Q1014 RMK BKN140

METARs OBSOLETI :
  • 171720Z 04002KT CAVOK 04/03 Q1014
  • 171650Z 04002KT CAVOK 04/03 Q1014 RMK BKN160
  • 171620Z 07002KT CAVOK 04/03 Q1014
  • 171550Z 09003KT CAVOK 04/03 Q1014 RMK BKN160
  • 171520Z 08002KT CAVOK 04/03 Q1014 RMK BKN150

TAF TAF EKSP
Valido dal 17 a 18 ore il 18 a 18 ore UTC


171708Z 1718/1818 VRB05KT 9999 SCT020 BKN160
TEMPO 1718/1721 3000 BR
BECMG 1718/1721 05010KT
BECMG 1721/1724 7000 -RADZ BKN012
TEMPO 1800/1803 4000 -RADZ BR BKN006
TEMPO 1803/1810 06012G22KT 2500 -RADZ BR BKN003
TEMPO 1810/1815 4000 -RADZ BR BKN006



MetMap, La meteo Aeronautica in un colpo d'occhio ! - Copyright ORBIFLY Dicembre 2007 - Disclaimer

ORBIFLY MET'MAP TEAM :

Programmazione e sviluppo : Alexandra Zaïnal
Concezione e sviluppo : Baudouin d'Aumeries
Co-Programmazione e sviluppo : Marc-Olivier Méhu
Supporto tecnico e logistico : Manuel Goepfert
Aiuto per la traduzione : Arnaldo La Scala

Contatto : metmap@orbifly.com




FONTI E CREDITI :

   NOAA